KCHK/CHK METAR and TAF weather

Enter ICAO airport designator
Station Type Date Time Source
KCHK METAR 2021/03/06 01:35 UTC NOAA

KCHK 060135Z AUTO 04006KT 10SM OVC044 11/05 A3021 RMK AO2 T01130050


Station Type Date Time Source
KCHK Decoded METAR 2021/03/06 01:35 UTC NOAA

Chickasha, Chickasha Municipal Airport, OK, United States (KCHK) 35-05-46N 097-57-58W
Mar 05, 2021 - 08:35 PM EST / 2021.03.06 0135 UTC
Wind: from the NE (040 degrees) at 7 MPH (6 KT):0
Visibility: 10 mile(s):0
Sky conditions: overcast
Temperature: 52.3 F (11.3 C)
Dew Point: 41.0 F (5.0 C)
Relative Humidity: 65%
Pressure (altimeter): 30.21 in. Hg (1023 hPa)
ob: KCHK 060135Z AUTO 04006KT 10SM OVC044 11/05 A3021 RMK AO2 T01130050
cycle: 1

Station Type Date Time Source
KCHK TAF UTC NOAA

Error!

Example: see airport list